Terminal Aerodrome Forecast
Issued by NWS

Home | Current Version | Previous Version | Text Only | Print | Product List | Glossary On
Versions: 1 2 3 4 5 6 7 8 9 10 11 12 13 14 15
000
FTUS46 KSGX 301120
TAFSNA
TAF
KSNA 301120Z 3012/3112 VRB03KT 3SM BR OVC003
     FM301630 VRB03KT P6SM SCT006
     FM301900 22009KT P6SM SKC
     FM310300 21005KT P6SM SCT008
     FM310600 VRB03KT P6SM OVC007=

USA.gov is the U.S. government's official web portal to all federal, state and local government web resources and services.